Time;durP1;ratioP1;P1;durP2;ratioP2;P2;SDS_P1;SDS_P2;PMS_P1;PMS_P2;Temp;Humidity;BMP_temperature;BMP_pressure;BME280_temperature;BME280_humidity;BME280_pressure;Samples;Min_cycle;Max_cycle;Signal;HPM_P1;HPM_P2
2023/01/25 00:00:11;;;;;;;6.57;6.03;;;;;;;;;;2088833;28;20025;-68
2023/01/25 00:01:29;;;;;;;4.50;4.10;;;;;;;;;;2088168;28;20017;-68
2023/01/25 00:02:48;;;;;;;7.28;5.80;;;;;;;;;;2089789;28;20037;-69
2023/01/25 00:04:07;;;;;;;6.53;5.28;;;;;;;;;;2090385;28;21498;-69
2023/01/25 00:05:26;;;;;;;6.35;5.75;;;;;;;;;;2088921;28;20056;-69
2023/01/25 00:06:45;;;;;;;6.32;5.72;;;;;;;;;;2088730;28;20036;-68
2023/01/25 00:08:05;;;;;;;7.07;5.65;;;;;;;;;;2091144;28;20033;-69
2023/01/25 00:09:24;;;;;;;7.95;5.25;;;;;;;;;;2088077;28;20104;-69
2023/01/25 00:10:43;;;;;;;5.80;4.93;;;;;;;;;;2088606;28;20037;-69
2023/01/25 00:12:02;;;;;;;5.50;5.00;;;;;;;;;;2088739;28;20032;-69
2023/01/25 00:13:21;;;;;;;6.03;5.53;;;;;;;;;;2088916;28;20036;-69
2023/01/25 00:14:40;;;;;;;5.38;4.88;;;;;;;;;;2088511;28;20037;-69
2023/01/25 00:15:59;;;;;;;6.05;4.82;;;;;;;;;;2087474;28;20112;-69
2023/01/25 00:17:18;;;;;;;9.18;5.45;;;;;;;;;;2087819;28;20053;-69
2023/01/25 00:18:37;;;;;;;7.18;3.97;;;;;;;;;;2089347;28;20056;-68
2023/01/25 00:19:56;;;;;;;4.93;4.28;;;;;;;;;;2090975;28;20464;-70
2023/01/25 00:21:17;;;;;;;5.47;4.95;;;;;;;;;;2091742;28;20048;-70
2023/01/25 00:22:36;;;;;;;5.60;4.68;;;;;;;;;;2090883;28;20018;-68
2023/01/25 00:23:55;;;;;;;4.93;4.53;;;;;;;;;;2091656;28;20471;-69
2023/01/25 00:25:14;;;;;;;5.78;5.18;;;;;;;;;;2086315;28;20499;-69
2023/01/25 00:26:34;;;;;;;5.75;5.25;;;;;;;;;;2088083;28;20040;-69
2023/01/25 00:27:53;;;;;;;7.13;6.28;;;;;;;;;;2091236;28;20041;-70
2023/01/25 00:29:13;;;;;;;5.75;5.20;;;;;;;;;;2088835;28;20020;-69
2023/01/25 00:30:32;;;;;;;6.55;5.70;;;;;;;;;;2089651;28;20029;-69
2023/01/25 00:32:17;;;;;;;5.97;5.47;;;;;;;;;;2089848;28;20033;-69
2023/01/25 00:33:36;;;;;;;6.30;5.70;;;;;;;;;;2091511;28;20029;-69
2023/01/25 00:34:55;;;;;;;8.40;5.63;;;;;;;;;;2089756;28;22040;-69
2023/01/25 00:36:31;;;;;;;8.75;6.30;;;;;;;;;;2090644;28;20032;-68
2023/01/25 00:37:51;;;;;;;7.93;6.55;;;;;;;;;;2089893;28;20072;-69
2023/01/25 00:39:11;;;;;;;9.13;6.38;;;;;;;;;;2089233;28;20036;-69
2023/01/25 00:40:30;;;;;;;9.23;6.30;;;;;;;;;;2092194;28;20413;-69
2023/01/25 00:41:49;;;;;;;8.88;6.30;;;;;;;;;;2092384;28;20028;-69
2023/01/25 00:43:08;;;;;;;7.43;5.65;;;;;;;;;;2090107;28;20119;-68
2023/01/25 00:44:27;;;;;;;6.95;6.13;;;;;;;;;;2090684;28;20099;-69
2023/01/25 00:45:46;;;;;;;7.47;6.28;;;;;;;;;;2089475;28;20040;-69
2023/01/25 00:47:05;;;;;;;7.40;6.63;;;;;;;;;;2091027;28;20039;-69
2023/01/25 00:48:24;;;;;;;7.68;6.05;;;;;;;;;;2093078;28;20398;-69
2023/01/25 00:49:43;;;;;;;7.57;6.18;;;;;;;;;;2092231;28;20041;-69
2023/01/25 00:51:02;;;;;;;7.45;5.80;;;;;;;;;;2090728;28;20044;-69
2023/01/25 00:52:21;;;;;;;6.78;6.05;;;;;;;;;;2092256;28;20456;-69
2023/01/25 00:53:40;;;;;;;5.10;4.60;;;;;;;;;;2093029;28;20442;-69
2023/01/25 00:54:59;;;;;;;7.25;6.00;;;;;;;;;;2090725;28;20032;-69
2023/01/25 00:56:19;;;;;;;6.55;5.85;;;;;;;;;;2091281;28;20029;-69
2023/01/25 00:57:37;;;;;;;8.02;5.82;;;;;;;;;;2091276;28;20033;-69
2023/01/25 00:58:56;;;;;;;9.82;5.97;;;;;;;;;;2091038;28;20040;-69
2023/01/25 01:00:16;;;;;;;9.13;6.10;;;;;;;;;;2089960;28;20041;-69
2023/01/25 01:01:35;;;;;;;7.82;5.03;;;;;;;;;;2089477;28;20384;-70
2023/01/25 01:02:54;;;;;;;6.35;5.22;;;;;;;;;;2087890;28;20505;-69
2023/01/25 01:04:13;;;;;;;6.65;5.45;;;;;;;;;;2090123;28;20041;-69
2023/01/25 01:05:33;;;;;;;8.93;5.93;;;;;;;;;;2090320;28;20041;-68
2023/01/25 01:06:53;;;;;;;6.97;6.05;;;;;;;;;;2091609;28;20029;-69
2023/01/25 01:08:12;;;;;;;8.23;5.68;;;;;;;;;;2091692;28;20025;-69
2023/01/25 01:09:31;;;;;;;5.57;4.85;;;;;;;;;;2090926;28;20119;-69
2023/01/25 01:10:50;;;;;;;6.78;4.68;;;;;;;;;;2091449;28;20099;-69
2023/01/25 01:12:09;;;;;;;9.05;5.15;;;;;;;;;;2092855;28;20036;-69
2023/01/25 01:13:28;;;;;;;7.00;4.90;;;;;;;;;;2088390;28;20402;-69
2023/01/25 01:14:47;;;;;;;6.35;4.93;;;;;;;;;;2091761;28;21243;-69
2023/01/25 01:16:10;;;;;;;5.65;5.20;;;;;;;;;;2090891;28;20111;-69
2023/01/25 01:17:29;;;;;;;4.68;4.28;;;;;;;;;;2090719;28;20020;-69
2023/01/25 01:18:48;;;;;;;6.20;4.38;;;;;;;;;;2089240;28;20037;-69
2023/01/25 01:20:07;;;;;;;6.95;4.72;;;;;;;;;;2091805;28;20394;-68
2023/01/25 01:21:26;;;;;;;5.82;4.80;;;;;;;;;;2090562;28;20016;-69
2023/01/25 01:22:45;;;;;;;6.00;4.97;;;;;;;;;;2090715;28;20080;-68
2023/01/25 01:24:05;;;;;;;5.20;4.70;;;;;;;;;;2092966;28;20025;-69
2023/01/25 01:25:23;;;;;;;9.27;5.10;;;;;;;;;;2090830;28;20040;-69
2023/01/25 01:26:42;;;;;;;7.35;4.55;;;;;;;;;;2091511;28;20029;-69
2023/01/25 01:28:01;;;;;;;6.25;4.97;;;;;;;;;;2092133;28;20037;-69
2023/01/25 01:29:20;;;;;;;5.72;5.20;;;;;;;;;;2090191;28;20032;-69
2023/01/25 01:30:39;;;;;;;2.25;1.95;;;;;;;;;;2088535;28;20394;-69
2023/01/25 01:31:58;;;;;;;5.72;4.22;;;;;;;;;;2092115;28;20028;-69
2023/01/25 01:33:17;;;;;;;4.13;3.83;;;;;;;;;;2090816;28;20497;-69
2023/01/25 01:34:36;;;;;;;4.03;3.60;;;;;;;;;;2091348;28;20050;-69
2023/01/25 01:35:55;;;;;;;4.68;4.25;;;;;;;;;;2088353;28;20024;-69
2023/01/25 01:37:15;;;;;;;4.38;3.97;;;;;;;;;;2089510;28;20025;-69
2023/01/25 01:38:34;;;;;;;3.97;3.60;;;;;;;;;;2087269;28;20041;-69
2023/01/25 01:39:53;;;;;;;4.28;3.97;;;;;;;;;;2092076;28;20041;-69
2023/01/25 01:41:12;;;;;;;4.28;3.90;;;;;;;;;;2089351;28;20385;-69
2023/01/25 01:42:31;;;;;;;5.90;4.00;;;;;;;;;;2093243;28;20024;-69
2023/01/25 01:43:52;;;;;;;5.28;4.75;;;;;;;;;;2089659;28;20048;-69
2023/01/25 01:45:29;;;;;;;5.47;4.47;;;;;;;;;;2087405;28;20024;-68
2023/01/25 01:46:53;;;;;;;3.25;2.88;;;;;;;;;;2089980;28;20036;-69
2023/01/25 01:48:24;;;;;;;4.03;3.63;;;;;;;;;;2091380;28;20024;-69
2023/01/25 01:49:47;;;;;;;4.43;3.95;;;;;;;;;;2091052;28;20029;-68
2023/01/25 01:51:36;;;;;;;3.72;3.42;;;;;;;;;;2090347;28;20044;-69
2023/01/25 01:52:55;;;;;;;3.80;3.50;;;;;;;;;;2087969;28;20452;-68
2023/01/25 01:54:19;;;;;;;5.10;3.95;;;;;;;;;;2090646;28;20440;-69
2023/01/25 01:55:38;;;;;;;4.55;3.67;;;;;;;;;;2089821;28;20049;-69
2023/01/25 01:57:01;;;;;;;3.72;3.42;;;;;;;;;;2089552;28;20025;-69
2023/01/25 01:58:21;;;;;;;2.80;2.35;;;;;;;;;;2091576;28;20060;-69
2023/01/25 01:59:43;;;;;;;2.50;2.30;;;;;;;;;;2091679;28;20472;-68
2023/01/25 02:01:02;;;;;;;3.17;2.90;;;;;;;;;;2087018;28;20893;-69
2023/01/25 02:02:22;;;;;;;3.95;3.65;;;;;;;;;;2090607;28;20036;-69
2023/01/25 02:03:42;;;;;;;2.42;2.22;;;;;;;;;;2088761;28;20029;-70
2023/01/25 02:05:03;;;;;;;3.75;3.38;;;;;;;;;;2088433;28;20044;-68
2023/01/25 02:06:26;;;;;;;3.33;2.63;;;;;;;;;;2091176;28;20781;-68
2023/01/25 02:07:47;;;;;;;4.80;3.05;;;;;;;;;;2090579;28;20052;-69
2023/01/25 02:09:06;;;;;;;2.50;2.30;;;;;;;;;;2087090;28;20029;-69
2023/01/25 02:10:26;;;;;;;3.03;2.80;;;;;;;;;;2088882;28;20033;-69
2023/01/25 02:11:45;;;;;;;4.03;3.25;;;;;;;;;;2092128;28;20040;-69
2023/01/25 02:13:04;;;;;;;3.80;2.90;;;;;;;;;;2089437;28;20111;-68
2023/01/25 02:14:24;;;;;;;3.28;2.50;;;;;;;;;;2090790;28;20032;-69
2023/01/25 02:15:47;;;;;;;4.68;3.08;;;;;;;;;;2089210;28;20025;-69
2023/01/25 02:17:05;;;;;;;;;;;;;;;;;;2089400;28;20100;-69
2023/01/25 02:18:25;;;;;;;1.67;1.58;;;;;;;;;;2088910;28;19904;-69
2023/01/25 02:19:44;;;;;;;3.58;2.63;;;;;;;;;;2090919;28;20029;-68
2023/01/25 02:21:03;;;;;;;3.83;2.13;;;;;;;;;;2091889;28;20033;-69
2023/01/25 02:22:24;;;;;;;2.92;2.72;;;;;;;;;;2089056;28;20029;-71
2023/01/25 02:24:06;;;;;;;3.72;3.10;;;;;;;;;;2091578;28;20428;-69
2023/01/25 02:25:25;;;;;;;4.05;2.05;;;;;;;;;;2089240;28;20040;-69
2023/01/25 02:26:44;;;;;;;2.33;2.20;;;;;;;;;;2090402;28;20413;-70
2023/01/25 02:28:06;;;;;;;3.75;2.78;;;;;;;;;;2090085;28;20029;-69
2023/01/25 02:29:25;;;;;;;2.45;1.92;;;;;;;;;;2088524;28;20028;-69
2023/01/25 02:30:44;;;;;;;2.67;2.10;;;;;;;;;;2086136;28;20028;-69
2023/01/25 02:32:04;;;;;;;2.55;2.35;;;;;;;;;;2089269;28;20087;-71
2023/01/25 02:33:24;;;;;;;2.58;2.25;;;;;;;;;;2090991;28;20120;-69
2023/01/25 02:34:43;;;;;;;2.42;2.15;;;;;;;;;;2088833;28;20389;-69
2023/01/25 02:36:08;;;;;;;2.95;1.95;;;;;;;;;;2088461;28;21176;-70
2023/01/25 02:37:27;;;;;;;2.58;1.98;;;;;;;;;;2090959;28;20041;-69
2023/01/25 02:39:01;;;;;;;2.10;1.77;;;;;;;;;;2088762;28;20029;-69
2023/01/25 02:40:20;;;;;;;;;;;;;;;;;;2089385;28;20497;-69
2023/01/25 02:41:40;;;;;;;2.35;2.00;;;;;;;;;;2091783;28;19905;-69
2023/01/25 02:42:58;;;;;;;2.58;2.38;;;;;;;;;;2090427;28;20393;-69
2023/01/25 02:44:20;;;;;;;2.45;2.25;;;;;;;;;;2089751;28;20020;-69
2023/01/25 02:45:38;;;;;;;3.60;2.40;;;;;;;;;;2089516;28;20041;-69
2023/01/25 02:46:57;;;;;;;3.17;1.85;;;;;;;;;;2090672;28;20021;-70
2023/01/25 02:48:17;;;;;;;4.20;1.92;;;;;;;;;;2089794;28;20029;-69
2023/01/25 02:49:36;;;;;;;2.58;2.40;;;;;;;;;;2089862;28;20497;-71
2023/01/25 02:50:55;;;;;;;2.58;2.22;;;;;;;;;;2091039;28;20032;-69
2023/01/25 02:52:14;;;;;;;2.60;2.40;;;;;;;;;;2091466;28;20430;-71
2023/01/25 02:53:33;;;;;;;2.08;1.98;;;;;;;;;;2090534;28;20079;-69
2023/01/25 02:54:52;;;;;;;2.25;2.05;;;;;;;;;;2087464;28;20016;-69
2023/01/25 02:56:11;;;;;;;2.55;2.35;;;;;;;;;;2086252;28;20029;-69
2023/01/25 02:57:30;;;;;;;2.38;2.17;;;;;;;;;;2091291;28;20029;-69
2023/01/25 02:58:49;;;;;;;2.50;2.30;;;;;;;;;;2091865;28;20025;-69
2023/01/25 03:00:08;;;;;;;2.10;2.00;;;;;;;;;;2090365;28;20025;-70
2023/01/25 03:01:27;;;;;;;2.83;2.28;;;;;;;;;;2089070;28;20028;-70
2023/01/25 03:02:46;;;;;;;1.77;1.67;;;;;;;;;;2089916;28;20584;-68
2023/01/25 03:04:05;;;;;;;2.08;1.98;;;;;;;;;;2086733;28;20029;-69
2023/01/25 03:05:24;;;;;;;2.15;1.95;;;;;;;;;;2087285;28;20040;-69
2023/01/25 03:06:43;;;;;;;2.38;2.17;;;;;;;;;;2090731;28;20044;-69
2023/01/25 03:08:02;;;;;;;2.00;1.90;;;;;;;;;;2091434;28;20393;-69
2023/01/25 03:09:21;;;;;;;1.67;1.58;;;;;;;;;;2089053;28;20112;-68
2023/01/25 03:10:40;;;;;;;2.60;1.67;;;;;;;;;;2089126;28;20048;-68
2023/01/25 03:11:59;;;;;;;1.65;1.55;;;;;;;;;;2091792;28;20116;-68
2023/01/25 03:13:18;;;;;;;2.88;2.42;;;;;;;;;;2088217;28;20495;-68
2023/01/25 03:14:37;;;;;;;2.50;2.30;;;;;;;;;;2089838;28;20112;-68
2023/01/25 03:16:03;;;;;;;2.35;2.15;;;;;;;;;;2089127;28;20933;-69
2023/01/25 03:17:23;;;;;;;2.70;1.98;;;;;;;;;;2087220;28;20108;-68
2023/01/25 03:18:42;;;;;;;2.33;1.90;;;;;;;;;;2092576;28;20441;-69
2023/01/25 03:20:01;;;;;;;1.90;1.80;;;;;;;;;;2089419;28;20033;-68
2023/01/25 03:21:21;;;;;;;2.53;2.10;;;;;;;;;;2092257;28;20056;-69
2023/01/25 03:22:40;;;;;;;1.83;1.73;;;;;;;;;;2089685;28;20025;-69
2023/01/25 03:24:00;;;;;;;1.90;1.80;;;;;;;;;;2090211;28;20041;-69
2023/01/25 03:25:19;;;;;;;2.05;1.95;;;;;;;;;;2088847;28;20029;-69
2023/01/25 03:28:16;;;;;;;2.35;2.17;;;;;;;;;;2088294;28;20037;-69
2023/01/25 03:29:35;;;;;;;2.22;2.10;;;;;;;;;;2088840;28;20029;-68
2023/01/25 03:30:54;;;;;;;2.85;1.88;;;;;;;;;;2088538;28;20447;-68
2023/01/25 03:32:13;;;;;;;3.38;2.47;;;;;;;;;;2088128;28;20060;-68
2023/01/25 03:33:32;;;;;;;2.88;2.08;;;;;;;;;;2089356;28;20024;-68
2023/01/25 03:34:51;;;;;;;2.30;1.55;;;;;;;;;;2090681;28;20020;-69
2023/01/25 03:36:10;;;;;;;4.00;1.77;;;;;;;;;;2088473;28;20037;-69
2023/01/25 03:37:30;;;;;;;2.85;1.70;;;;;;;;;;2090714;28;20032;-69
2023/01/25 03:38:49;;;;;;;2.38;2.10;;;;;;;;;;2091455;28;20124;-69
2023/01/25 03:40:08;;;;;;;2.55;1.45;;;;;;;;;;2088919;28;20486;-69
2023/01/25 03:41:27;;;;;;;1.85;1.50;;;;;;;;;;2088630;28;20041;-69
2023/01/25 03:42:46;;;;;;;2.65;1.67;;;;;;;;;;2090919;28;20108;-69
2023/01/25 03:44:05;;;;;;;2.67;1.70;;;;;;;;;;2089965;28;20493;-68
2023/01/25 03:45:24;;;;;;;1.60;1.50;;;;;;;;;;2090336;28;20037;-69
2023/01/25 03:46:43;;;;;;;2.22;1.23;;;;;;;;;;2089679;28;20029;-69
2023/01/25 03:48:02;;;;;;;1.77;1.67;;;;;;;;;;2090375;28;20025;-69
2023/01/25 03:49:21;;;;;;;1.80;1.70;;;;;;;;;;2090657;28;20029;-69
2023/01/25 03:50:40;;;;;;;1.52;1.42;;;;;;;;;;2089099;28;20127;-70
2023/01/25 03:51:59;;;;;;;1.88;1.77;;;;;;;;;;2088296;28;20115;-69
2023/01/25 03:53:31;;;;;;;0.95;0.95;;;;;;;;;;2092339;28;20025;-69
2023/01/25 03:54:50;;;;;;;1.38;1.27;;;;;;;;;;2091674;28;20461;-69
2023/01/25 03:56:10;;;;;;;2.00;1.85;;;;;;;;;;2090263;28;20127;-70
2023/01/25 03:57:29;;;;;;;1.77;1.67;;;;;;;;;;2090533;28;20029;-69
2023/01/25 03:58:48;;;;;;;1.70;1.60;;;;;;;;;;2091148;28;20025;-69
2023/01/25 04:00:07;;;;;;;2.33;1.27;;;;;;;;;;2089270;28;20524;-69
2023/01/25 04:01:27;;;;;;;1.35;1.25;;;;;;;;;;2090874;28;20025;-69
2023/01/25 04:02:46;;;;;;;2.25;1.50;;;;;;;;;;2092607;28;20146;-70
2023/01/25 04:04:05;;;;;;;1.90;1.60;;;;;;;;;;2092073;28;20033;-69
2023/01/25 04:05:24;;;;;;;1.80;1.70;;;;;;;;;;2090267;28;20094;-69
2023/01/25 04:06:43;;;;;;;1.77;1.67;;;;;;;;;;2091157;28;20037;-70
2023/01/25 04:08:02;;;;;;;2.42;1.73;;;;;;;;;;2090176;28;20037;-70
2023/01/25 04:09:21;;;;;;;1.73;1.63;;;;;;;;;;2090130;28;20069;-69
2023/01/25 04:10:40;;;;;;;1.13;1.13;;;;;;;;;;2088301;28;20067;-70
2023/01/25 04:11:59;;;;;;;1.52;1.35;;;;;;;;;;2090052;28;20032;-70
2023/01/25 04:13:19;;;;;;;1.90;1.80;;;;;;;;;;2091507;28;20037;-70
2023/01/25 04:14:38;;;;;;;1.80;1.67;;;;;;;;;;2092248;28;20052;-69
2023/01/25 04:15:57;;;;;;;1.00;1.00;;;;;;;;;;2091767;28;20033;-70
2023/01/25 04:17:16;;;;;;;1.33;1.23;;;;;;;;;;2091932;28;20028;-69
2023/01/25 04:18:35;;;;;;;1.40;1.33;;;;;;;;;;2091223;28;20037;-70
2023/01/25 04:19:53;;;;;;;1.70;1.60;;;;;;;;;;2092815;28;20494;-70
2023/01/25 04:21:12;;;;;;;1.67;1.58;;;;;;;;;;2092305;28;20029;-70
2023/01/25 04:22:31;;;;;;;1.90;1.40;;;;;;;;;;2090544;28;20025;-71
2023/01/25 04:23:50;;;;;;;1.88;1.65;;;;;;;;;;2092605;28;20037;-70
2023/01/25 04:25:09;;;;;;;1.65;1.55;;;;;;;;;;2090596;28;20043;-70
2023/01/25 04:26:28;;;;;;;1.75;1.65;;;;;;;;;;2092369;28;20033;-69
2023/01/25 04:27:48;;;;;;;1.17;1.08;;;;;;;;;;2092824;28;20036;-70
2023/01/25 04:29:09;;;;;;;1.83;1.73;;;;;;;;;;2089864;28;20053;-70
2023/01/25 04:30:28;;;;;;;1.50;1.40;;;;;;;;;;2090895;28;20040;-70
2023/01/25 04:31:46;;;;;;;1.98;1.88;;;;;;;;;;2089966;28;20041;-69
2023/01/25 04:33:06;;;;;;;1.73;1.63;;;;;;;;;;2090599;28;20036;-69
2023/01/25 04:34:25;;;;;;;2.35;2.17;;;;;;;;;;2091779;28;20021;-69
2023/01/25 04:35:44;;;;;;;1.58;1.48;;;;;;;;;;2088159;28;20037;-70
2023/01/25 04:37:03;;;;;;;1.55;1.45;;;;;;;;;;2091026;28;20112;-69
2023/01/25 04:38:22;;;;;;;2.35;2.15;;;;;;;;;;2094483;28;20044;-70
2023/01/25 04:39:41;;;;;;;1.58;1.48;;;;;;;;;;2092501;28;20033;-69
2023/01/25 04:41:00;;;;;;;2.25;1.92;;;;;;;;;;2091097;28;20036;-69
2023/01/25 04:42:19;;;;;;;2.22;2.13;;;;;;;;;;2089818;28;20040;-69
2023/01/25 04:43:38;;;;;;;2.60;2.20;;;;;;;;;;2092448;28;20055;-69
2023/01/25 04:44:57;;;;;;;3.28;1.98;;;;;;;;;;2092034;28;20048;-69
2023/01/25 04:46:16;;;;;;;3.38;2.20;;;;;;;;;;2088871;28;20029;-69
2023/01/25 04:47:34;;;;;;;1.83;1.73;;;;;;;;;;2090930;28;20041;-69
2023/01/25 04:48:53;;;;;;;2.75;2.08;;;;;;;;;;2091037;28;20078;-69
2023/01/25 04:50:12;;;;;;;2.33;2.13;;;;;;;;;;2089641;28;20091;-69
2023/01/25 04:51:31;;;;;;;1.95;1.83;;;;;;;;;;2090697;28;20040;-69
2023/01/25 04:52:51;;;;;;;2.00;1.88;;;;;;;;;;2088788;28;20069;-69
2023/01/25 04:54:09;;;;;;;2.55;2.40;;;;;;;;;;2089379;28;20033;-69
2023/01/25 04:55:28;;;;;;;2.13;1.58;;;;;;;;;;2089509;28;20766;-70
2023/01/25 04:56:47;;;;;;;2.10;1.88;;;;;;;;;;2091257;28;20115;-69
2023/01/25 04:58:06;;;;;;;3.22;2.08;;;;;;;;;;2091273;28;20020;-71
2023/01/25 04:59:25;;;;;;;2.58;2.10;;;;;;;;;;2091689;28;20115;-69
2023/01/25 05:00:44;;;;;;;2.78;2.58;;;;;;;;;;2090564;28;20041;-70
2023/01/25 05:02:03;;;;;;;2.88;2.55;;;;;;;;;;2091741;28;20408;-69
2023/01/25 05:03:22;;;;;;;2.20;2.03;;;;;;;;;;2092849;28;20104;-69
2023/01/25 05:04:41;;;;;;;2.20;2.10;;;;;;;;;;2089516;28;20033;-69
2023/01/25 05:05:59;;;;;;;2.20;2.10;;;;;;;;;;2092949;28;20585;-70
2023/01/25 05:07:18;;;;;;;2.38;2.17;;;;;;;;;;2090828;28;20036;-69
2023/01/25 05:08:37;;;;;;;1.73;1.63;;;;;;;;;;2092015;28;20033;-69
2023/01/25 05:09:57;;;;;;;2.30;2.13;;;;;;;;;;2092562;28;20025;-69
2023/01/25 05:11:15;;;;;;;2.15;1.95;;;;;;;;;;2092023;28;20388;-70
2023/01/25 05:12:34;;;;;;;4.32;2.40;;;;;;;;;;2091966;28;20505;-69
2023/01/25 05:13:53;;;;;;;2.05;1.92;;;;;;;;;;2091910;28;20049;-70
2023/01/25 05:15:13;;;;;;;2.75;2.53;;;;;;;;;;2092391;28;20025;-69
2023/01/25 05:16:32;;;;;;;2.70;2.50;;;;;;;;;;2085723;28;20785;-69
2023/01/25 05:17:50;;;;;;;1.95;1.83;;;;;;;;;;2089675;28;20079;-69
2023/01/25 05:19:09;;;;;;;3.72;2.67;;;;;;;;;;2090941;28;20032;-70
2023/01/25 05:20:28;;;;;;;1.85;1.75;;;;;;;;;;2092246;28;20025;-70
2023/01/25 05:21:56;;;;;;;2.53;2.33;;;;;;;;;;2091520;28;20077;-69
2023/01/25 05:23:15;;;;;;;1.02;1.02;;;;;;;;;;2091363;28;20061;-70
2023/01/25 05:24:35;;;;;;;1.83;1.73;;;;;;;;;;2086172;28;20086;-69
2023/01/25 05:27:32;;;;;;;1.77;1.67;;;;;;;;;;2087859;28;20579;-70
2023/01/25 05:28:51;;;;;;;2.25;2.05;;;;;;;;;;2090203;28;20112;-71
2023/01/25 05:30:10;;;;;;;2.40;2.20;;;;;;;;;;2088449;28;20493;-69
2023/01/25 05:31:29;;;;;;;1.05;1.05;;;;;;;;;;2088568;28;20029;-71
2023/01/25 05:32:49;;;;;;;3.35;3.05;;;;;;;;;;2090550;28;20041;-70
2023/01/25 05:34:08;;;;;;;2.58;2.38;;;;;;;;;;2087486;28;20045;-69
2023/01/25 05:35:27;;;;;;;2.08;1.98;;;;;;;;;;2085847;28;20040;-70
2023/01/25 05:36:46;;;;;;;2.58;2.38;;;;;;;;;;2087057;28;20036;-69
2023/01/25 05:38:05;;;;;;;2.90;2.70;;;;;;;;;;2089616;28;20064;-71
2023/01/25 05:39:25;;;;;;;2.63;2.33;;;;;;;;;;2088468;28;20100;-71
2023/01/25 05:40:43;;;;;;;2.38;2.17;;;;;;;;;;2088407;28;20028;-70
2023/01/25 05:42:02;;;;;;;3.00;2.78;;;;;;;;;;2089810;28;20107;-70
2023/01/25 05:43:23;;;;;;;2.85;2.65;;;;;;;;;;2089752;28;20036;-69
2023/01/25 05:44:41;;;;;;;3.90;2.88;;;;;;;;;;2088429;28;20025;-69
2023/01/25 05:46:01;;;;;;;3.10;2.90;;;;;;;;;;2090687;28;20112;-70
2023/01/25 05:47:20;;;;;;;2.38;2.25;;;;;;;;;;2089393;28;20111;-70
2023/01/25 05:48:39;;;;;;;1.48;1.27;;;;;;;;;;2090155;28;20334;-69
2023/01/25 05:49:58;;;;;;;2.75;2.55;;;;;;;;;;2090713;28;20040;-69
2023/01/25 05:51:17;;;;;;;2.28;2.17;;;;;;;;;;2090757;28;20064;-69
2023/01/25 05:52:36;;;;;;;2.67;2.47;;;;;;;;;;2087857;28;20041;-70
2023/01/25 05:53:55;;;;;;;1.75;1.65;;;;;;;;;;2091602;28;20472;-69
2023/01/25 05:55:14;;;;;;;2.78;2.45;;;;;;;;;;2085492;28;20104;-69
2023/01/25 05:56:33;;;;;;;3.63;2.05;;;;;;;;;;2087022;28;20029;-69
2023/01/25 05:57:55;;;;;;;2.92;2.72;;;;;;;;;;2089465;28;20037;-69
2023/01/25 05:59:16;;;;;;;4.25;2.85;;;;;;;;;;2087547;28;20033;-70
2023/01/25 06:00:35;;;;;;;2.95;2.75;;;;;;;;;;2087687;28;20020;-69
2023/01/25 06:01:54;;;;;;;3.33;3.03;;;;;;;;;;2087803;28;20033;-69
2023/01/25 06:03:12;;;;;;;4.20;2.22;;;;;;;;;;2086942;28;20053;-70
2023/01/25 06:04:31;;;;;;;2.53;2.33;;;;;;;;;;2087398;28;20025;-70
2023/01/25 06:05:55;;;;;;;2.50;2.40;;;;;;;;;;2091337;28;20103;-70
2023/01/25 06:07:14;;;;;;;3.67;2.95;;;;;;;;;;2087736;28;20161;-70
2023/01/25 06:08:34;;;;;;;2.13;1.92;;;;;;;;;;2086559;28;20059;-70
2023/01/25 06:09:53;;;;;;;3.30;3.00;;;;;;;;;;2090469;28;20441;-70
2023/01/25 06:11:13;;;;;;;3.08;2.88;;;;;;;;;;2089658;28;20025;-70
2023/01/25 06:12:33;;;;;;;3.30;2.60;;;;;;;;;;2090689;28;20025;-70
2023/01/25 06:13:52;;;;;;;2.15;1.98;;;;;;;;;;2091183;28;20033;-69
2023/01/25 06:15:11;;;;;;;2.30;2.13;;;;;;;;;;2087671;28;20025;-70
2023/01/25 06:16:30;;;;;;;2.33;2.22;;;;;;;;;;2085154;28;20568;-70
2023/01/25 06:17:53;;;;;;;2.30;2.10;;;;;;;;;;2088226;28;20033;-70
2023/01/25 06:19:12;;;;;;;2.40;2.20;;;;;;;;;;2089696;28;20029;-70
2023/01/25 06:20:31;;;;;;;2.35;2.10;;;;;;;;;;2090261;28;20020;-71
2023/01/25 06:21:50;;;;;;;2.10;2.00;;;;;;;;;;2087542;28;20025;-70
2023/01/25 06:23:09;;;;;;;3.78;2.42;;;;;;;;;;2091871;28;20384;-71
2023/01/25 06:24:28;;;;;;;3.13;2.38;;;;;;;;;;2092703;28;20029;-70
2023/01/25 06:25:47;;;;;;;2.30;2.20;;;;;;;;;;2089717;28;20037;-71
2023/01/25 06:27:06;;;;;;;2.13;2.03;;;;;;;;;;2090106;28;20037;-70
2023/01/25 06:28:25;;;;;;;2.53;2.33;;;;;;;;;;2090722;28;20050;-71
2023/01/25 06:29:44;;;;;;;2.28;2.15;;;;;;;;;;2090910;28;20132;-70
2023/01/25 06:31:10;;;;;;;2.40;2.20;;;;;;;;;;2091263;28;20110;-71
2023/01/25 06:32:33;;;;;;;2.03;1.90;;;;;;;;;;2091193;28;20397;-69
2023/01/25 06:33:52;;;;;;;2.67;2.47;;;;;;;;;;2089257;28;20448;-71
2023/01/25 06:35:11;;;;;;;2.03;1.60;;;;;;;;;;2089275;28;20037;-70
2023/01/25 06:36:30;;;;;;;2.45;2.25;;;;;;;;;;2091220;28;20480;-71
2023/01/25 06:37:49;;;;;;;2.17;1.90;;;;;;;;;;2088366;28;20115;-71
2023/01/25 06:39:08;;;;;;;3.47;2.05;;;;;;;;;;2089211;28;20424;-70
2023/01/25 06:40:27;;;;;;;2.20;2.00;;;;;;;;;;2090913;28;20472;-71
2023/01/25 06:41:46;;;;;;;2.38;2.17;;;;;;;;;;2091428;28;20424;-70
2023/01/25 06:43:08;;;;;;;1.80;1.70;;;;;;;;;;2091159;28;20101;-70
2023/01/25 06:44:28;;;;;;;1.95;1.83;;;;;;;;;;2091954;28;20489;-71
2023/01/25 06:45:47;;;;;;;2.30;2.20;;;;;;;;;;2088721;28;20036;-71
2023/01/25 06:47:11;;;;;;;2.33;2.17;;;;;;;;;;2088306;28;20453;-70
2023/01/25 06:48:30;;;;;;;1.90;1.80;;;;;;;;;;2089664;28;20037;-71
2023/01/25 06:49:49;;;;;;;3.05;2.85;;;;;;;;;;2089074;28;20044;-70
2023/01/25 06:51:09;;;;;;;2.70;2.50;;;;;;;;;;2089799;28;20682;-70
2023/01/25 06:52:30;;;;;;;2.00;1.90;;;;;;;;;;2089115;28;20040;-70
2023/01/25 06:53:49;;;;;;;2.63;2.42;;;;;;;;;;2085638;28;20556;-70
2023/01/25 06:55:12;;;;;;;2.60;2.40;;;;;;;;;;2086895;28;20116;-71
2023/01/25 06:56:31;;;;;;;2.28;2.17;;;;;;;;;;2090124;28;20025;-70
2023/01/25 06:57:50;;;;;;;2.83;2.63;;;;;;;;;;2090526;28;20017;-70
2023/01/25 06:59:09;;;;;;;3.58;2.22;;;;;;;;;;2090234;28;20029;-71
2023/01/25 07:00:28;;;;;;;2.35;2.15;;;;;;;;;;2089381;28;20021;-70
2023/01/25 07:01:47;;;;;;;2.72;2.50;;;;;;;;;;2090261;28;20032;-70
2023/01/25 07:03:06;;;;;;;3.60;3.30;;;;;;;;;;2089329;28;20025;-71
2023/01/25 07:04:25;;;;;;;3.85;2.72;;;;;;;;;;2089389;28;20036;-70
2023/01/25 07:05:45;;;;;;;2.67;2.47;;;;;;;;;;2088539;28;20112;-71
2023/01/25 07:07:06;;;;;;;2.78;2.58;;;;;;;;;;2090494;28;20032;-70
2023/01/25 07:08:25;;;;;;;3.13;2.90;;;;;;;;;;2090962;28;20021;-70
2023/01/25 07:09:45;;;;;;;3.40;3.20;;;;;;;;;;2087794;28;20402;-70
2023/01/25 07:11:05;;;;;;;2.47;2.22;;;;;;;;;;2090724;28;20059;-70
2023/01/25 07:12:24;;;;;;;4.15;2.70;;;;;;;;;;2090877;28;20032;-70
2023/01/25 07:13:44;;;;;;;3.20;2.65;;;;;;;;;;2088923;28;20037;-70
2023/01/25 07:15:03;;;;;;;3.20;2.90;;;;;;;;;;2092122;28;20020;-70
2023/01/25 07:16:22;;;;;;;2.97;2.78;;;;;;;;;;2090422;28;20033;-70
2023/01/25 07:17:41;;;;;;;3.03;2.60;;;;;;;;;;2090654;28;20070;-70
2023/01/25 07:19:00;;;;;;;2.60;2.40;;;;;;;;;;2090296;28;20024;-71
2023/01/25 07:20:19;;;;;;;2.78;2.58;;;;;;;;;;2091185;28;20025;-70
2023/01/25 07:21:38;;;;;;;3.42;2.60;;;;;;;;;;2091718;28;20018;-70
2023/01/25 07:22:57;;;;;;;3.33;2.70;;;;;;;;;;2091431;28;20572;-70
2023/01/25 07:24:17;;;;;;;2.65;2.45;;;;;;;;;;2087814;28;20060;-70
2023/01/25 07:25:36;;;;;;;3.55;3.00;;;;;;;;;;2090149;28;20025;-70
2023/01/25 07:26:55;;;;;;;3.55;2.78;;;;;;;;;;2092281;28;20029;-71
2023/01/25 07:28:15;;;;;;;3.13;2.83;;;;;;;;;;2090410;28;20040;-70
2023/01/25 07:29:34;;;;;;;3.70;2.63;;;;;;;;;;2084692;28;20038;-70
2023/01/25 07:30:53;;;;;;;3.05;2.80;;;;;;;;;;2089630;28;20232;-70
2023/01/25 07:32:13;;;;;;;3.15;2.95;;;;;;;;;;2089938;28;20071;-70
2023/01/25 07:33:32;;;;;;;3.63;2.80;;;;;;;;;;2089391;28;20450;-71
2023/01/25 07:34:51;;;;;;;2.90;2.70;;;;;;;;;;2091441;28;20124;-71
2023/01/25 07:36:11;;;;;;;3.13;2.88;;;;;;;;;;2091142;28;20041;-71
2023/01/25 07:37:29;;;;;;;2.50;2.33;;;;;;;;;;2091040;28;20040;-71
2023/01/25 07:38:51;;;;;;;3.50;2.30;;;;;;;;;;2088829;28;20021;-71
2023/01/25 07:40:12;;;;;;;2.58;2.13;;;;;;;;;;2088475;28;20452;-71
2023/01/25 07:41:34;;;;;;;2.88;2.67;;;;;;;;;;2087583;28;20025;-72
2023/01/25 07:42:53;;;;;;;2.40;2.20;;;;;;;;;;2091535;28;20107;-71
2023/01/25 07:44:12;;;;;;;4.03;2.72;;;;;;;;;;2090136;28;20052;-71
2023/01/25 07:45:31;;;;;;;2.88;1.95;;;;;;;;;;2089039;28;20413;-71
2023/01/25 07:46:51;;;;;;;2.95;2.47;;;;;;;;;;2089739;28;20041;-71
2023/01/25 07:48:10;;;;;;;2.60;2.40;;;;;;;;;;2091417;28;20036;-71
2023/01/25 07:49:29;;;;;;;3.53;2.35;;;;;;;;;;2088446;28;20477;-72
2023/01/25 07:51:10;;;;;;;2.30;2.05;;;;;;;;;;2087508;28;20045;-70
2023/01/25 07:52:29;;;;;;;1.92;1.80;;;;;;;;;;2088914;28;20037;-70
2023/01/25 07:53:50;;;;;;;2.30;1.95;;;;;;;;;;2088870;28;20497;-70
2023/01/25 07:55:08;;;;;;;2.50;2.30;;;;;;;;;;2089229;28;20021;-70
2023/01/25 07:56:32;;;;;;;2.03;1.92;;;;;;;;;;2087486;28;20548;-70
2023/01/25 07:57:54;;;;;;;2.28;2.00;;;;;;;;;;2088444;28;20045;-71
2023/01/25 07:59:14;;;;;;;3.08;1.60;;;;;;;;;;2089551;28;20100;-71
2023/01/25 08:00:33;;;;;;;1.67;1.58;;;;;;;;;;2089417;28;20041;-71
2023/01/25 08:01:53;;;;;;;1.58;1.48;;;;;;;;;;2091777;28;20044;-71